createdAt,value
2023-04-20T00:00:17.500Z,0.0000
2023-04-20T00:01:18.165Z,0.0000
2023-04-20T00:02:19.020Z,0.0000
2023-04-20T00:03:19.326Z,0.0000
2023-04-20T00:04:20.072Z,0.0000
2023-04-20T00:05:21.096Z,0.0000
2023-04-20T00:06:22.054Z,0.0000
2023-04-20T00:07:22.550Z,0.0000
2023-04-20T00:08:23.272Z,0.0000
2023-04-20T00:09:24.140Z,0.0000
2023-04-20T00:10:24.722Z,0.0000
2023-04-20T00:11:25.389Z,0.0000
2023-04-20T00:12:26.046Z,0.0000
2023-04-20T00:13:26.507Z,0.0000
2023-04-20T00:14:27.309Z,0.0000
2023-04-20T00:15:27.919Z,0.0000
2023-04-20T00:16:28.580Z,0.0000
2023-04-20T00:17:29.860Z,0.0000
2023-04-20T00:18:30.356Z,0.0000
2023-04-20T00:19:30.982Z,0.0000
2023-04-20T00:20:31.524Z,0.0000
2023-04-20T00:21:31.904Z,0.0000
2023-04-20T00:22:32.536Z,0.0000
2023-04-20T00:23:33.097Z,0.0000
2023-04-20T00:24:33.605Z,0.0000
2023-04-20T00:25:34.304Z,0.0000
2023-04-20T00:26:34.673Z,0.0000
2023-04-20T00:27:35.334Z,0.0000
2023-04-20T00:28:36.052Z,0.0000
2023-04-20T00:29:37.097Z,0.0000
2023-04-20T00:30:37.784Z,0.0000
2023-04-20T00:31:38.711Z,0.0000
2023-04-20T00:32:39.365Z,0.0000
2023-04-20T00:33:40.027Z,0.0000
2023-04-20T00:34:40.750Z,0.0000
2023-04-20T00:35:41.441Z,0.0000
2023-04-20T00:36:42.269Z,0.0000
2023-04-20T00:37:42.586Z,0.0000
2023-04-20T00:38:43.362Z,0.0000
2023-04-20T00:39:43.765Z,0.0000
2023-04-20T00:40:44.348Z,0.0000
2023-04-20T00:41:45.031Z,0.0000
2023-04-20T00:42:45.647Z,0.0000
2023-04-20T00:43:46.203Z,0.0000
2023-04-20T00:44:46.956Z,0.0000
2023-04-20T00:45:47.558Z,0.0000
2023-04-20T00:46:48.485Z,0.0000
2023-04-20T00:47:48.977Z,0.0000
2023-04-20T00:48:49.742Z,0.0000
2023-04-20T00:49:50.025Z,0.0000
2023-04-20T00:50:50.536Z,0.0000
2023-04-20T00:51:51.185Z,0.0000
2023-04-20T00:52:52.032Z,0.0000
2023-04-20T00:53:52.473Z,0.0000
2023-04-20T00:54:53.223Z,0.0000
2023-04-20T00:55:53.636Z,0.0000
2023-04-20T00:56:54.316Z,0.0000
2023-04-20T00:57:54.842Z,0.0000
2023-04-20T00:58:55.555Z,0.0000
2023-04-20T00:59:56.824Z,0.0000
2023-04-20T01:00:57.508Z,0.0000
2023-04-20T01:02:59.240Z,0.0000
2023-04-20T01:03:59.766Z,0.0000
2023-04-20T01:05:00.987Z,0.0000
2023-04-20T01:06:01.571Z,0.0000
2023-04-20T01:07:02.007Z,0.0000
2023-04-20T01:08:02.709Z,0.0000
2023-04-20T01:09:02.680Z,0.0000
2023-04-20T01:10:03.328Z,0.0000
2023-04-20T01:11:04.026Z,0.0000
2023-04-20T01:12:04.587Z,0.0000
2023-04-20T01:13:05.255Z,0.0000
2023-04-20T01:14:05.998Z,0.0000
2023-04-20T01:15:06.454Z,0.0000
2023-04-20T01:16:07.312Z,0.0000
2023-04-20T01:17:07.929Z,0.0000
2023-04-20T01:18:08.922Z,0.0000
2023-04-20T01:19:09.626Z,0.0000
2023-04-20T01:20:10.152Z,0.0000
2023-04-20T01:21:11.147Z,0.0000
2023-04-20T01:22:11.885Z,0.0000
2023-04-20T01:23:12.468Z,0.0000
2023-04-20T01:24:13.074Z,0.0000
2023-04-20T01:25:13.722Z,0.0000
2023-04-20T01:26:14.394Z,0.0000
2023-04-20T01:27:14.980Z,0.0000
2023-04-20T01:28:15.475Z,0.0000
2023-04-20T01:29:16.333Z,0.0000
2023-04-20T01:30:17.199Z,0.0000
2023-04-20T01:31:17.647Z,0.0000
2023-04-20T01:32:18.632Z,0.0000
2023-04-20T01:33:19.625Z,0.0000
2023-04-20T01:34:20.137Z,0.0000
2023-04-20T01:35:20.857Z,0.0000
2023-04-20T01:36:21.413Z,0.0000
2023-04-20T01:37:22.045Z,0.0000
2023-04-20T01:38:22.709Z,0.0000
2023-04-20T01:39:23.519Z,0.0000
2023-04-20T01:40:24.290Z,0.0000
2023-04-20T01:41:24.901Z,0.0000
2023-04-20T01:42:25.552Z,0.0000
2023-04-20T01:43:26.286Z,0.0000
2023-04-20T01:44:26.724Z,0.0000
2023-04-20T01:45:27.416Z,0.0000
2023-04-20T01:46:28.232Z,0.0000
2023-04-20T01:47:29.045Z,0.0000
2023-04-20T01:48:29.930Z,0.0000
2023-04-20T01:49:30.453Z,0.0000
2023-04-20T01:50:30.961Z,0.0000
2023-04-20T01:51:31.708Z,0.0000
2023-04-20T01:52:32.040Z,0.0000
2023-04-20T01:53:32.682Z,0.0000
2023-04-20T01:54:33.440Z,0.0000
2023-04-20T01:55:33.935Z,0.0000
2023-04-20T01:56:34.590Z,0.0000
2023-04-20T01:57:35.198Z,0.0000
2023-04-20T01:58:35.777Z,0.0000
2023-04-20T01:59:36.584Z,0.0000
2023-04-20T02:00:37.054Z,0.0000
2023-04-20T02:01:37.951Z,0.0000
2023-04-20T02:02:39.320Z,0.0000
2023-04-20T02:03:39.787Z,0.0000
2023-04-20T02:04:40.725Z,0.0000
2023-04-20T02:05:41.395Z,0.0000
2023-04-20T02:06:42.558Z,0.0000
2023-04-20T02:07:43.200Z,0.0000
2023-04-20T02:08:43.916Z,0.0000
2023-04-20T02:09:44.566Z,0.0000
2023-04-20T02:10:45.260Z,0.0000
2023-04-20T02:11:45.771Z,0.0000
2023-04-20T02:12:46.318Z,0.0000
2023-04-20T02:13:47.530Z,0.0000
2023-04-20T02:14:47.962Z,0.0000
2023-04-20T02:15:48.710Z,0.0000
2023-04-20T02:16:49.572Z,0.0000
2023-04-20T02:17:50.687Z,0.0000
2023-04-20T02:18:51.352Z,0.0000
2023-04-20T02:19:52.102Z,0.0000
2023-04-20T02:20:52.723Z,0.0000
2023-04-20T02:21:53.419Z,0.0000
2023-04-20T02:22:53.873Z,0.0000
2023-04-20T02:23:54.570Z,0.0000
2023-04-20T02:24:55.368Z,0.0000
2023-04-20T02:25:55.899Z,0.0000
2023-04-20T02:26:56.576Z,0.0000
2023-04-20T02:27:57.019Z,0.0000
2023-04-20T02:28:57.695Z,0.0000
2023-04-20T02:29:58.348Z,0.0000
2023-04-20T02:30:58.816Z,0.0000
2023-04-20T02:31:59.755Z,0.0000
2023-04-20T02:33:00.675Z,0.0000
2023-04-20T02:34:01.170Z,0.0000
2023-04-20T02:35:01.788Z,0.0000
2023-04-20T02:36:02.191Z,0.0000
2023-04-20T02:37:02.834Z,0.0000
2023-04-20T02:38:03.529Z,0.0000
2023-04-20T02:39:04.040Z,0.0000
2023-04-20T02:42:04.929Z,0.0000
2023-04-20T02:43:05.570Z,0.0000
2023-04-20T02:44:05.982Z,0.0000
2023-04-20T02:45:06.692Z,0.0000
2023-04-20T02:46:07.352Z,0.0000
2023-04-20T02:47:08.300Z,0.0000
2023-04-20T02:48:09.483Z,0.0000
2023-04-20T02:49:10.281Z,0.0000
2023-04-20T02:50:10.229Z,0.0000
2023-04-20T02:51:10.933Z,0.0000
2023-04-20T02:52:11.630Z,0.0000
2023-04-20T02:53:12.063Z,0.0000
2023-04-20T02:54:12.683Z,0.0000
2023-04-20T02:55:13.189Z,0.0000
2023-04-20T02:56:13.763Z,0.0000
2023-04-20T02:57:14.348Z,0.0000
2023-04-20T02:58:14.864Z,0.0000
2023-04-20T02:59:15.681Z,0.0000
2023-04-20T03:00:16.347Z,0.0000
2023-04-20T03:01:16.864Z,0.0000
2023-04-20T03:02:18.146Z,0.0000
2023-04-20T03:03:18.781Z,0.0000
2023-04-20T03:04:20.039Z,0.0000
2023-04-20T03:05:20.257Z,0.0000
2023-04-20T03:06:20.786Z,0.0000
2023-04-20T03:07:21.099Z,0.0000
2023-04-20T03:08:21.834Z,0.0000
2023-04-20T03:09:22.467Z,0.0000
2023-04-20T03:10:23.145Z,0.0000
2023-04-20T03:11:23.753Z,0.0000
2023-04-20T03:12:24.382Z,0.0000
2023-04-20T03:13:25.044Z,0.0000
2023-04-20T03:14:25.525Z,0.0000
2023-04-20T03:15:26.263Z,0.0000
2023-04-20T03:16:27.226Z,0.0000
2023-04-20T03:17:28.172Z,0.0000
2023-04-20T03:18:29.093Z,0.0000
2023-04-20T03:19:30.203Z,0.0000
2023-04-20T03:20:30.676Z,0.0000
2023-04-20T03:21:31.762Z,0.0000
2023-04-20T03:22:32.694Z,0.0000
2023-04-20T03:23:33.505Z,0.0000
2023-04-20T03:24:34.124Z,0.0000
2023-04-20T03:25:34.228Z,0.0000
2023-04-20T03:26:34.853Z,0.0000
2023-04-20T03:27:35.470Z,0.0000
2023-04-20T03:28:36.039Z,0.0000
2023-04-20T03:29:36.577Z,0.0000
2023-04-20T03:30:37.120Z,0.0000
2023-04-20T03:31:37.829Z,0.0000
2023-04-20T03:32:38.956Z,0.0000
2023-04-20T03:33:39.801Z,0.0000
2023-04-20T03:34:40.406Z,0.0000
2023-04-20T03:35:41.134Z,0.0000
2023-04-20T03:36:41.664Z,0.0000
2023-04-20T03:37:42.280Z,0.0000
2023-04-20T03:38:42.810Z,0.0000
2023-04-20T03:39:43.407Z,0.0000
2023-04-20T03:40:44.095Z,0.0000
2023-04-20T03:41:44.598Z,0.0000
2023-04-20T03:42:44.615Z,0.0000
2023-04-20T03:43:45.921Z,0.0000
2023-04-20T03:44:46.411Z,0.0000
2023-04-20T03:45:47.187Z,0.0000
2023-04-20T03:46:48.582Z,0.0000
2023-04-20T03:47:49.656Z,0.0000
2023-04-20T03:48:50.475Z,0.0000
2023-04-20T03:49:51.296Z,0.0000
2023-04-20T03:50:52.056Z,0.0000
2023-04-20T03:51:52.915Z,0.0000
2023-04-20T03:52:53.388Z,0.0000
2023-04-20T03:53:53.567Z,0.0000
2023-04-20T03:54:54.310Z,0.0000
2023-04-20T03:55:54.798Z,0.0000
2023-04-20T03:56:55.482Z,0.0000
2023-04-20T03:57:56.085Z,0.0000
2023-04-20T03:58:56.696Z,0.0000
2023-04-20T03:59:57.630Z,0.0000
2023-04-20T04:00:58.445Z,0.0000
2023-04-20T04:02:00.242Z,0.0000
2023-04-20T04:02:59.927Z,0.0000
2023-04-20T04:04:00.740Z,0.0000
2023-04-20T04:05:00.989Z,0.0000
2023-04-20T04:06:01.623Z,0.0000
2023-04-20T04:07:02.538Z,0.0000
2023-04-20T04:08:03.321Z,1.4000
2023-04-20T04:09:04.031Z,1.8444
2023-04-20T04:10:04.822Z,0.0000
2023-04-20T04:11:05.474Z,1.5111
2023-04-20T04:12:06.200Z,4.0000
2023-04-20T04:13:09.252Z,4.0000
2023-04-20T04:14:10.159Z,2.1707
2023-04-20T04:15:25.664Z,1.0000
2023-04-20T04:16:26.294Z,4.5556
2023-04-20T04:17:27.587Z,7.6667
2023-04-20T04:19:31.127Z,8.6429
2023-04-20T04:20:31.879Z,7.2955
2023-04-20T04:21:34.109Z,10.6364
2023-04-20T04:25:37.802Z,36.8049
2023-04-20T04:35:54.278Z,83.5366
2023-04-20T04:36:55.670Z,75.6667
2023-04-20T04:37:56.484Z,79.0000
2023-04-20T04:38:57.526Z,85.6667
2023-04-20T04:44:01.144Z,144.0465
2023-04-20T04:45:02.897Z,152.9048
2023-04-20T04:48:06.036Z,146.0667
2023-04-20T04:49:05.099Z,162.4048
2023-04-20T04:50:06.172Z,156.3256
2023-04-20T04:51:07.032Z,180.0000
2023-04-20T04:52:07.857Z,193.8889
2023-04-20T04:53:08.835Z,203.4444
2023-04-20T04:54:09.860Z,209.6222
2023-04-20T04:55:10.050Z,219.4286
2023-04-20T04:56:11.216Z,244.8095
2023-04-20T04:57:13.234Z,264.4878
2023-04-20T04:58:14.582Z,256.9268
2023-04-20T04:59:15.019Z,258.8781
2023-04-20T05:00:15.126Z,268.1219
2023-04-20T05:04:19.905Z,341.2439
2023-04-20T05:05:20.663Z,354.2683
2023-04-20T05:06:21.262Z,368.4146
2023-04-20T05:07:21.505Z,387.1707
2023-04-20T05:08:22.824Z,402.2927
2023-04-20T05:09:23.135Z,424.0000
2023-04-20T05:10:25.247Z,422.2051
2023-04-20T05:11:24.951Z,420.7954
2023-04-20T05:12:25.501Z,424.6222
2023-04-20T05:13:26.186Z,435.5333
2023-04-20T05:14:27.313Z,467.1555
2023-04-20T05:15:27.786Z,471.4000
2023-04-20T05:16:28.759Z,470.7209
2023-04-20T05:17:30.386Z,494.5111
2023-04-20T05:18:30.514Z,527.9091
2023-04-20T05:19:31.681Z,555.5778
2023-04-20T05:20:32.192Z,597.4445
2023-04-20T05:21:32.190Z,636.3636
2023-04-20T05:22:33.054Z,649.4889
2023-04-20T05:23:34.322Z,637.4667
2023-04-20T05:24:35.083Z,645.0000
2023-04-20T05:25:36.146Z,618.1111
2023-04-20T05:26:36.855Z,590.5778
2023-04-20T05:27:37.466Z,582.6222
2023-04-20T05:28:38.342Z,627.5778
2023-04-20T05:29:38.954Z,701.9111
2023-04-20T05:30:40.238Z,798.7317
2023-04-20T05:31:41.675Z,839.4445
2023-04-20T05:32:42.286Z,860.9773
2023-04-20T05:33:43.017Z,874.8571
2023-04-20T05:34:43.435Z,922.0000
2023-04-20T05:35:44.270Z,913.1334
2023-04-20T05:36:45.404Z,801.0889
2023-04-20T05:37:46.182Z,717.8444
2023-04-20T05:38:46.885Z,603.8889
2023-04-20T05:39:48.089Z,483.9111
2023-04-20T05:40:50.345Z,502.3778
2023-04-20T05:41:50.283Z,608.6279
2023-04-20T05:42:50.374Z,763.8781
2023-04-20T05:43:51.760Z,838.7805
2023-04-20T05:44:52.397Z,828.2162
2023-04-20T05:45:52.906Z,780.7857
2023-04-20T05:46:53.943Z,719.6667
2023-04-20T05:47:54.422Z,670.7317
2023-04-20T05:48:54.448Z,621.6923
2023-04-20T05:49:54.760Z,516.1219
2023-04-20T05:50:55.948Z,559.8571
2023-04-20T05:51:56.734Z,622.3415
2023-04-20T05:57:00.692Z,783.3333
2023-04-20T05:58:01.243Z,760.0732
2023-04-20T05:59:01.539Z,776.3415
2023-04-20T06:00:01.634Z,581.4878
2023-04-20T06:01:03.177Z,536.8333
2023-04-20T06:02:04.296Z,481.3658
2023-04-20T06:03:04.510Z,402.4102
2023-04-20T06:05:05.097Z,413.9250
2023-04-20T06:10:08.211Z,787.8536
2023-04-20T06:11:08.355Z,897.7805
2023-04-20T06:12:09.597Z,809.6190
2023-04-20T06:13:10.453Z,674.1707
2023-04-20T06:14:10.413Z,718.2791
2023-04-20T06:15:11.176Z,837.5111
2023-04-20T06:16:12.272Z,877.7333
2023-04-20T06:17:12.915Z,890.2222
2023-04-20T06:18:13.918Z,932.2222
2023-04-20T06:19:14.303Z,934.0000
2023-04-20T06:20:15.603Z,971.6667
2023-04-20T06:21:16.223Z,1072.3778
2023-04-20T06:22:16.654Z,1214.1333
2023-04-20T06:23:17.305Z,1149.9778
2023-04-20T06:24:17.853Z,1058.8445
2023-04-20T06:25:18.320Z,921.9111
2023-04-20T06:26:18.994Z,885.5778
2023-04-20T06:27:19.614Z,831.3555
2023-04-20T06:28:20.346Z,823.3488
2023-04-20T06:29:21.388Z,706.4667
2023-04-20T06:30:22.551Z,819.8889
2023-04-20T06:31:23.000Z,828.2500
2023-04-20T06:32:24.028Z,849.2667
2023-04-20T06:33:24.858Z,971.4445
2023-04-20T06:34:25.488Z,1196.8223
2023-04-20T06:35:26.051Z,1161.4889
2023-04-20T06:36:26.556Z,1208.3334
2023-04-20T06:37:27.426Z,1555.6666
2023-04-20T06:38:28.014Z,1488.9556
2023-04-20T06:39:28.653Z,1930.9778
2023-04-20T06:40:29.599Z,1696.0222
2023-04-20T06:41:30.340Z,1090.3112
2023-04-20T06:42:30.882Z,1123.8864
2023-04-20T06:43:31.429Z,1328.1111
2023-04-20T06:44:31.971Z,1086.3556
2023-04-20T06:45:34.122Z,921.4000
2023-04-20T06:47:33.326Z,1421.3556
2023-04-20T06:48:34.639Z,1389.9375
2023-04-20T06:49:35.363Z,1964.9333
2023-04-20T06:50:35.741Z,1867.0889
2023-04-20T06:51:36.374Z,2404.6001
2023-04-20T06:52:36.926Z,2624.5779
2023-04-20T06:53:37.490Z,2807.8000
2023-04-20T06:54:38.078Z,2479.0000
2023-04-20T06:55:38.661Z,2435.5334
2023-04-20T06:56:39.240Z,2184.3333
2023-04-20T06:57:39.880Z,1888.0000
2023-04-20T06:58:40.296Z,1510.4222
2023-04-20T06:59:40.962Z,1291.3112
2023-04-20T07:00:41.734Z,1280.3334
2023-04-20T07:01:42.296Z,1323.1777
2023-04-20T07:02:42.530Z,1575.8182
2023-04-20T07:03:43.422Z,1570.0227
2023-04-20T07:04:44.349Z,1281.0909
2023-04-20T07:05:44.946Z,1646.4667
2023-04-20T07:06:45.592Z,1833.8445
2023-04-20T07:07:46.665Z,1855.1666
2023-04-20T07:08:47.209Z,2038.1333
2023-04-20T07:09:47.901Z,2425.3777
2023-04-20T07:10:48.577Z,2887.6445
2023-04-20T07:11:48.997Z,2870.4666
2023-04-20T07:12:49.546Z,2910.9556
2023-04-20T07:13:50.051Z,2601.3999
2023-04-20T07:14:50.720Z,2808.7334
2023-04-20T07:15:51.355Z,2591.0222
2023-04-20T07:16:52.342Z,2032.6222
2023-04-20T07:17:53.370Z,1757.9111
2023-04-20T07:19:56.070Z,1611.6444
2023-04-20T07:20:56.646Z,1498.5111
2023-04-20T07:21:57.376Z,1454.0667
2023-04-20T07:22:57.920Z,1675.0222
2023-04-20T07:23:58.625Z,2023.4884
2023-04-20T07:24:59.298Z,2247.2000
2023-04-20T07:25:59.724Z,2101.1333
2023-04-20T07:27:00.410Z,2421.0667
2023-04-20T07:28:00.883Z,2885.8445
2023-04-20T07:29:01.455Z,2483.9556
2023-04-20T07:30:02.546Z,2093.3999
2023-04-20T07:31:03.080Z,1836.2000
2023-04-20T07:32:03.738Z,1781.2667
2023-04-20T07:33:04.908Z,1621.4667
2023-04-20T07:34:05.581Z,1491.2000
2023-04-20T07:35:05.684Z,1392.4773
2023-04-20T07:36:06.100Z,1485.2889
2023-04-20T07:37:07.204Z,1816.6888
2023-04-20T07:38:07.935Z,2349.0889
2023-04-20T07:39:08.482Z,2700.3110
2023-04-20T07:40:09.152Z,2776.1333
2023-04-20T07:41:09.728Z,2919.5112
2023-04-20T07:42:10.100Z,2854.2222
2023-04-20T07:43:10.844Z,2697.8445
2023-04-20T07:44:11.614Z,2141.6001
2023-04-20T07:45:11.972Z,1869.6222
2023-04-20T07:46:12.684Z,1698.0222
2023-04-20T07:47:14.058Z,1674.9333
2023-04-20T07:48:14.730Z,1774.6888
2023-04-20T07:49:15.614Z,1919.9556
2023-04-20T07:50:16.805Z,2612.9556
2023-04-20T07:51:17.335Z,3043.8445
2023-04-20T07:53:17.644Z,2817.8889
2023-04-20T07:54:18.286Z,2448.3110
2023-04-20T07:55:18.945Z,2429.5557
2023-04-20T07:56:20.345Z,2356.7908
2023-04-20T07:58:20.238Z,2094.8667
2023-04-20T07:59:20.748Z,2259.7778
2023-04-20T08:00:20.838Z,2305.1428
2023-04-20T08:01:21.338Z,2136.2888
2023-04-20T08:02:22.759Z,1995.9111
2023-04-20T08:03:22.821Z,2192.7441
2023-04-20T08:04:23.960Z,2369.4419
2023-04-20T08:05:24.418Z,2304.8604
2023-04-20T08:06:24.562Z,2140.3865
2023-04-20T08:07:25.269Z,2238.0889
2023-04-20T08:08:25.764Z,2429.9778
2023-04-20T08:09:26.530Z,2323.5334
2023-04-20T08:10:27.270Z,2192.2222
2023-04-20T08:11:28.067Z,1985.7778
2023-04-20T08:12:28.577Z,1769.2667
2023-04-20T08:16:30.574Z,2254.4666
2023-04-20T08:17:31.612Z,2565.2222
2023-04-20T08:18:32.666Z,2819.2046
2023-04-20T08:19:33.217Z,3169.3181
2023-04-20T08:21:34.602Z,5148.9302
2023-04-20T08:22:35.094Z,5874.9775
2023-04-20T08:23:35.808Z,5739.3110
2023-04-20T08:24:37.115Z,7177.1777
2023-04-20T08:25:37.827Z,6929.7778
2023-04-20T08:26:38.700Z,5956.5557
2023-04-20T08:27:39.391Z,4981.4443
2023-04-20T08:28:40.016Z,4718.6055
2023-04-20T08:29:40.506Z,4437.8887
2023-04-20T08:30:40.934Z,4568.5112
2023-04-20T08:31:41.748Z,4305.7109
2023-04-20T08:32:42.551Z,4411.3555
2023-04-20T08:33:43.163Z,4222.6445
2023-04-20T08:34:43.153Z,4187.4771
2023-04-20T08:35:43.879Z,4498.6445
2023-04-20T08:36:44.344Z,4404.2222
2023-04-20T08:37:45.492Z,4147.7207
2023-04-20T08:38:45.754Z,4221.1943
2023-04-20T08:39:46.327Z,4754.9775
2023-04-20T08:40:47.015Z,4982.2446
2023-04-20T08:41:47.411Z,6181.6890
2023-04-20T08:42:47.895Z,6561.3335
2023-04-20T08:43:48.730Z,6540.1333
2023-04-20T08:44:49.464Z,5903.7109
2023-04-20T08:45:50.048Z,5394.8887
2023-04-20T08:46:50.973Z,5114.5112
2023-04-20T08:47:50.969Z,4708.1138
2023-04-20T08:48:51.781Z,4059.2000
2023-04-20T08:49:52.291Z,3653.9111
2023-04-20T08:50:52.856Z,3436.0667
2023-04-20T08:51:53.446Z,3524.4221
2023-04-20T08:52:53.888Z,3745.2222
2023-04-20T08:53:54.506Z,4229.3999
2023-04-20T08:54:57.325Z,4938.2632
2023-04-20T08:55:55.962Z,5734.1162
2023-04-20T08:56:56.551Z,6682.8887
2023-04-20T08:57:57.020Z,8269.5332
2023-04-20T08:58:57.669Z,8266.4668
2023-04-20T08:59:58.514Z,9371.6221
2023-04-20T09:00:58.937Z,10477.5781
2023-04-20T09:01:59.775Z,9178.8330
2023-04-20T09:02:59.918Z,7685.3638
2023-04-20T09:04:00.451Z,6952.1860
2023-04-20T09:05:00.974Z,5215.9766
2023-04-20T09:06:01.540Z,4443.7334
2023-04-20T09:07:02.420Z,4320.6001
2023-04-20T09:08:03.033Z,4561.3335
2023-04-20T09:09:03.476Z,4659.8442
2023-04-20T09:10:04.122Z,4977.4443
2023-04-20T09:11:04.795Z,5904.1333
2023-04-20T09:12:05.235Z,6437.9331
2023-04-20T09:13:06.422Z,7902.7271
2023-04-20T09:14:06.856Z,8686.4004
2023-04-20T09:15:08.062Z,7594.4224
2023-04-20T09:16:08.796Z,8677.7773
2023-04-20T09:17:09.448Z,10474.4893
2023-04-20T09:18:10.180Z,9490.5557
2023-04-20T09:19:13.909Z,9201.6367
2023-04-20T09:20:11.998Z,8158.3022
2023-04-20T09:21:12.513Z,8023.5112
2023-04-20T09:22:13.082Z,7150.1777
2023-04-20T09:23:13.657Z,6402.0889
2023-04-20T09:24:14.386Z,6585.9556
2023-04-20T09:25:14.985Z,7257.0889
2023-04-20T09:26:15.408Z,6944.0889
2023-04-20T09:27:16.122Z,7939.1333
2023-04-20T09:28:16.547Z,7940.9775
2023-04-20T09:29:17.154Z,7286.3335
2023-04-20T09:30:17.825Z,7723.5332
2023-04-20T09:31:18.249Z,9946.9336
2023-04-20T09:32:19.353Z,10166.3115
2023-04-20T09:33:20.123Z,9383.4004
2023-04-20T09:34:20.611Z,8293.2227
2023-04-20T09:35:21.189Z,10578.1338
2023-04-20T09:36:21.756Z,10266.5557
2023-04-20T09:37:22.834Z,6883.9546
2023-04-20T09:38:23.404Z,5549.2446
2023-04-20T09:39:24.111Z,5551.9331
2023-04-20T09:40:24.606Z,5372.8442
2023-04-20T09:41:25.596Z,5141.3555
2023-04-20T09:42:25.990Z,5031.3335
2023-04-20T09:43:26.581Z,5048.8887
2023-04-20T09:44:27.163Z,5674.5557
2023-04-20T09:45:27.594Z,5183.1558
2023-04-20T09:46:28.846Z,4629.6890
2023-04-20T09:47:29.556Z,4163.3110
2023-04-20T09:48:32.141Z,4215.0000
2023-04-20T09:49:31.865Z,4300.6816
2023-04-20T09:50:47.999Z,4093.3889
2023-04-20T09:51:38.778Z,3482.9722
2023-04-20T09:52:39.346Z,3566.5557
2023-04-20T09:53:39.917Z,4299.8223
2023-04-20T09:54:40.965Z,4917.0225
2023-04-20T09:55:41.587Z,4702.1558
2023-04-20T09:56:42.261Z,4024.7334
2023-04-20T09:57:42.653Z,3848.0889
2023-04-20T09:58:43.251Z,3548.5779
2023-04-20T09:59:43.662Z,3377.8667
2023-04-20T10:00:44.243Z,3494.5112
2023-04-20T10:01:45.237Z,3637.7778
2023-04-20T10:02:46.676Z,3148.1555
2023-04-20T10:03:46.690Z,2789.7441
2023-04-20T10:04:47.144Z,2951.0930
2023-04-20T10:05:47.764Z,3312.9333
2023-04-20T10:06:48.940Z,3374.5334
2023-04-20T10:07:49.359Z,3015.2000
2023-04-20T10:08:50.133Z,2573.7112
2023-04-20T10:09:50.669Z,2708.1777
2023-04-20T10:10:51.206Z,2721.9111
2023-04-20T10:11:53.905Z,2658.3889
2023-04-20T10:12:52.237Z,2295.7620
2023-04-20T10:13:52.754Z,2479.5779
2023-04-20T10:14:52.854Z,2806.0681
2023-04-20T10:15:53.335Z,2474.8889
2023-04-20T10:16:54.309Z,2502.4443
2023-04-20T10:17:54.934Z,2514.0681
2023-04-20T10:18:55.238Z,2327.5454
2023-04-20T10:19:56.386Z,2445.9546
2023-04-20T10:20:57.035Z,2431.5112
2023-04-20T10:21:57.418Z,2388.4666
2023-04-20T10:22:58.054Z,2650.2000
2023-04-20T10:23:58.532Z,2525.9778
2023-04-20T10:24:59.653Z,2440.3333
2023-04-20T10:26:00.231Z,2465.6890
2023-04-20T10:27:00.772Z,2548.5334
2023-04-20T10:28:01.320Z,2587.1111
2023-04-20T10:29:01.839Z,2808.7112
2023-04-20T10:30:02.265Z,2992.4285
2023-04-20T10:31:03.059Z,2766.9333
2023-04-20T10:32:03.758Z,2917.5557
2023-04-20T10:33:04.754Z,2928.9556
2023-04-20T10:34:05.347Z,2676.1555
2023-04-20T10:35:05.820Z,2684.9778
2023-04-20T10:36:06.501Z,3173.5334
2023-04-20T10:37:07.120Z,3088.0000
2023-04-20T10:38:07.488Z,2642.8889
2023-04-20T10:39:08.215Z,2711.4443
2023-04-20T10:40:09.019Z,2879.8604
2023-04-20T10:41:09.677Z,2744.4221
2023-04-20T10:42:25.887Z,3167.5000
2023-04-20T10:43:26.769Z,3422.5557
2023-04-20T10:44:27.584Z,3361.1777
2023-04-20T10:45:28.141Z,3489.0000
2023-04-20T10:46:29.104Z,3603.0667
2023-04-20T10:47:29.724Z,3891.3999
2023-04-20T10:48:29.709Z,3774.5952
2023-04-20T10:49:30.210Z,3450.9111
2023-04-20T10:50:30.881Z,3562.3555
2023-04-20T10:51:31.629Z,3749.2666
2023-04-20T10:52:32.040Z,3021.4666
2023-04-20T10:53:32.764Z,2747.1555
2023-04-20T10:54:33.283Z,2698.9111
2023-04-20T10:55:33.917Z,2624.8000
2023-04-20T10:56:34.562Z,2933.8667
2023-04-20T10:57:34.969Z,3120.4666
2023-04-20T10:58:35.543Z,2984.6667
2023-04-20T10:59:36.236Z,2652.5334
2023-04-20T11:00:36.887Z,3183.9556
2023-04-20T11:01:37.511Z,3870.7778
2023-04-20T11:02:38.727Z,3552.9111
2023-04-20T11:03:39.059Z,3027.5000
2023-04-20T11:04:39.278Z,2836.3901
2023-04-20T11:05:39.979Z,3161.8445
2023-04-20T11:06:40.672Z,3218.0444
2023-04-20T11:07:41.359Z,3568.4443
2023-04-20T11:08:42.019Z,4182.3999
2023-04-20T11:10:42.076Z,4168.1113
2023-04-20T11:11:42.807Z,4092.3333
2023-04-20T11:12:43.363Z,3905.4221
2023-04-20T11:13:43.885Z,3515.0000
2023-04-20T11:14:44.650Z,3862.1777
2023-04-20T11:15:45.093Z,3760.3333
2023-04-20T11:16:51.714Z,3719.2222
2023-04-20T11:17:46.181Z,3676.6750
2023-04-20T11:18:47.185Z,3578.0222
2023-04-20T11:19:48.308Z,3647.5557
2023-04-20T11:20:48.899Z,3869.8223
2023-04-20T11:21:50.166Z,3864.5334
2023-04-20T11:22:52.086Z,4268.0889
2023-04-20T11:23:52.502Z,4410.9302
2023-04-20T11:24:53.162Z,3348.2666
2023-04-20T11:25:53.849Z,3693.0222
2023-04-20T11:26:54.423Z,3543.2000
2023-04-20T11:27:54.997Z,3037.2888
2023-04-20T11:28:58.108Z,3679.3555
2023-04-20T11:29:58.837Z,4307.3779
2023-04-20T11:30:59.501Z,4258.4668
2023-04-20T11:31:59.787Z,4203.1362
2023-04-20T11:33:00.932Z,4907.3862
2023-04-20T11:34:00.795Z,4478.6816
2023-04-20T11:35:08.241Z,4990.5366
2023-04-20T11:36:09.387Z,4615.0908
2023-04-20T11:37:10.074Z,4766.5112
2023-04-20T11:38:11.037Z,5034.3110
2023-04-20T11:39:11.694Z,5417.7334
2023-04-20T11:40:12.942Z,5274.5112
2023-04-20T11:41:14.078Z,4746.1113
2023-04-20T11:42:14.895Z,5553.5776
2023-04-20T11:43:15.406Z,4686.5776
2023-04-20T11:44:16.016Z,4978.0225
2023-04-20T11:45:16.811Z,3931.4443
2023-04-20T11:46:17.609Z,3101.5557
2023-04-20T11:47:17.860Z,3036.6135
2023-04-20T11:48:18.787Z,3660.6890
2023-04-20T11:49:19.631Z,4161.2666
2023-04-20T11:50:20.354Z,3809.0000
2023-04-20T11:51:20.844Z,3542.6667
2023-04-20T11:52:21.650Z,2985.2888
2023-04-20T11:53:22.272Z,2593.6667
2023-04-20T11:54:22.777Z,2534.9778
2023-04-20T11:55:23.450Z,2433.5112
2023-04-20T11:56:24.097Z,2659.5112
2023-04-20T11:57:24.739Z,3141.3777
2023-04-20T11:58:25.447Z,3216.9111
2023-04-20T11:59:25.868Z,3081.0667
2023-04-20T12:00:26.582Z,2936.6001
2023-04-20T12:01:27.252Z,2754.0000
2023-04-20T12:02:28.332Z,2989.2888
2023-04-20T12:03:28.811Z,3799.9070
2023-04-20T12:04:29.355Z,4713.7617
2023-04-20T12:05:30.106Z,4581.9092
2023-04-20T12:06:30.713Z,3963.9333
2023-04-20T12:07:31.184Z,3979.4221
2023-04-20T12:08:31.800Z,4254.5112
2023-04-20T12:09:32.255Z,4348.1113
2023-04-20T12:10:32.914Z,4354.7554
2023-04-20T12:11:34.140Z,4539.6665
2023-04-20T12:12:34.622Z,5012.8667
2023-04-20T12:13:35.356Z,5019.0000
2023-04-20T12:14:36.060Z,4666.0669
2023-04-20T12:15:36.619Z,4443.6001
2023-04-20T12:16:37.816Z,4333.5776
2023-04-20T12:17:39.081Z,3704.4187
2023-04-20T12:18:40.152Z,3841.3333
2023-04-20T12:19:41.426Z,4392.8667
2023-04-20T12:20:41.943Z,4065.0222
2023-04-20T12:21:42.716Z,4118.1777
2023-04-20T12:22:43.359Z,3793.3555
2023-04-20T12:23:43.738Z,3220.5334
2023-04-20T12:24:44.401Z,3088.6223
2023-04-20T12:25:44.871Z,3913.6001
2023-04-20T12:26:45.978Z,4933.2749
2023-04-20T12:27:48.073Z,4742.0000
2023-04-20T12:28:46.872Z,3815.1162
2023-04-20T12:29:47.084Z,3805.6135
2023-04-20T12:30:47.922Z,3778.4888
2023-04-20T12:31:48.694Z,3610.3777
2023-04-20T12:32:49.628Z,3901.9556
2023-04-20T12:33:50.290Z,3986.8000
2023-04-20T12:34:51.130Z,3653.8000
2023-04-20T12:35:51.781Z,3102.2000
2023-04-20T12:36:52.225Z,3092.6890
2023-04-20T12:37:52.950Z,3200.8445
2023-04-20T12:38:53.490Z,3248.3110
2023-04-20T12:39:53.927Z,3236.7334
2023-04-20T12:40:54.600Z,2924.9556